Wheatland, Iowa
Current Conditions -  °F | °C
As of 6:52 AM on Tuesday 21 Oct 2014 (Local Time) from KDVN Reporting Station
Clear Clear  
Wind Chill: 39°   Ceiling: Unl
Heat Index: 39°   Visibility: 10mi
Dew Point: 36°   Wind: 3mph
Humidity: 89%   Direction: 10°N
Pressure: 30.14"   Gusts: NA
Location:  41.83°N, 90.84°W
Report Text: KDVN 211152Z AUTO 01003KT 10SM CLR 04/02 A3014 RMK AO2 SLP210 T00390022 10072 20022 53020 TSNO
Loading
Personal Weather Stations






























Interactive Weather Map
Tropical Storm Tracking
New forecast layout! Learn more

10-Day Weather Forecast

Advertisements
Track Severe Weather on mobile